createdAt,value
2018-08-17T00:00:17.336Z,0.00
2018-08-17T00:01:17.762Z,0.00
2018-08-17T00:02:17.692Z,0.00
2018-08-17T00:03:17.873Z,0.00
2018-08-17T00:04:18.053Z,0.00
2018-08-17T00:05:18.366Z,0.00
2018-08-17T00:06:18.430Z,0.00
2018-08-17T00:07:18.616Z,0.00
2018-08-17T00:08:18.771Z,0.00
2018-08-17T00:09:18.944Z,0.00
2018-08-17T00:10:19.105Z,0.00
2018-08-17T00:11:19.332Z,0.00
2018-08-17T00:12:19.488Z,0.00
2018-08-17T00:13:19.669Z,0.00
2018-08-17T00:14:19.855Z,0.00
2018-08-17T00:15:20.028Z,0.00
2018-08-17T00:16:20.206Z,0.00
2018-08-17T00:17:20.394Z,0.00
2018-08-17T00:18:20.560Z,0.00
2018-08-17T00:19:20.737Z,0.00
2018-08-17T00:20:20.920Z,0.00
2018-08-17T00:21:21.086Z,0.00
2018-08-17T00:22:21.269Z,0.00
2018-08-17T00:23:21.434Z,0.00
2018-08-17T00:24:21.609Z,0.00
2018-08-17T00:25:21.785Z,0.00
2018-08-17T00:26:21.960Z,0.00
2018-08-17T00:27:22.163Z,0.00
2018-08-17T00:28:22.355Z,0.00
2018-08-17T00:29:22.536Z,0.00
2018-08-17T00:30:22.715Z,0.00
2018-08-17T00:31:22.914Z,0.00
2018-08-17T00:32:23.057Z,0.00
2018-08-17T00:33:23.258Z,0.00
2018-08-17T00:34:23.422Z,0.00
2018-08-17T00:35:23.625Z,0.00
2018-08-17T00:36:23.811Z,0.00
2018-08-17T00:37:23.987Z,0.00
2018-08-17T00:38:24.170Z,0.00
2018-08-17T00:39:24.350Z,0.00
2018-08-17T00:40:24.520Z,0.00
2018-08-17T00:41:24.687Z,0.00
2018-08-17T00:42:24.866Z,0.00
2018-08-17T00:43:25.053Z,0.00
2018-08-17T00:44:25.253Z,0.00
2018-08-17T00:45:25.414Z,0.00
2018-08-17T00:46:25.592Z,0.00
2018-08-17T00:47:25.781Z,0.00
2018-08-17T00:48:25.966Z,0.00
2018-08-17T00:49:26.138Z,0.00
2018-08-17T00:50:26.290Z,0.00
2018-08-17T00:51:26.479Z,0.00
2018-08-17T00:52:26.670Z,0.00
2018-08-17T00:53:26.839Z,0.00
2018-08-17T00:54:27.018Z,0.00
2018-08-17T00:55:27.218Z,0.00
2018-08-17T00:56:27.382Z,0.00
2018-08-17T00:57:27.519Z,0.00
2018-08-17T00:58:27.700Z,0.00
2018-08-17T00:59:27.872Z,0.00
2018-08-17T01:00:28.038Z,0.00
2018-08-17T01:01:28.224Z,0.00
2018-08-17T01:02:28.403Z,0.00
2018-08-17T01:03:28.581Z,0.00
2018-08-17T01:04:28.755Z,0.00
2018-08-17T01:05:28.959Z,0.00
2018-08-17T01:06:29.132Z,0.00
2018-08-17T01:07:29.291Z,0.00
2018-08-17T01:08:29.490Z,0.00
2018-08-17T01:09:29.635Z,0.00
2018-08-17T01:10:29.813Z,0.00
2018-08-17T01:11:29.988Z,0.00
2018-08-17T01:12:30.154Z,0.00
2018-08-17T01:13:30.332Z,0.00
2018-08-17T01:14:30.526Z,0.00
2018-08-17T01:15:30.699Z,0.00
2018-08-17T01:16:30.882Z,0.00
2018-08-17T01:17:31.056Z,0.00
2018-08-17T01:18:31.235Z,0.00
2018-08-17T01:19:31.423Z,0.00
2018-08-17T01:20:31.590Z,0.00
2018-08-17T01:21:31.770Z,0.00
2018-08-17T01:22:31.932Z,0.00
2018-08-17T01:23:32.119Z,0.00
2018-08-17T01:24:32.300Z,0.00
2018-08-17T01:25:32.478Z,0.00
2018-08-17T01:26:32.652Z,0.00
2018-08-17T01:27:32.858Z,0.00
2018-08-17T01:28:33.053Z,0.00
2018-08-17T01:29:33.228Z,0.00
2018-08-17T01:30:33.405Z,0.00
2018-08-17T01:31:33.602Z,0.00
2018-08-17T01:33:33.957Z,0.00
2018-08-17T01:34:34.155Z,0.00
2018-08-17T01:35:34.320Z,0.00
2018-08-17T01:36:34.494Z,0.00
2018-08-17T01:37:34.687Z,0.00
2018-08-17T01:38:34.870Z,0.00
2018-08-17T01:39:35.062Z,0.00
2018-08-17T01:40:35.229Z,0.00
2018-08-17T01:41:35.405Z,0.00
2018-08-17T01:42:35.583Z,0.00
2018-08-17T01:43:35.759Z,0.00
2018-08-17T01:44:35.944Z,0.00
2018-08-17T01:45:36.127Z,0.00
2018-08-17T01:46:36.312Z,0.00
2018-08-17T01:47:36.513Z,0.00
2018-08-17T01:48:36.662Z,0.00
2018-08-17T01:49:36.854Z,0.00
2018-08-17T01:50:37.033Z,0.00
2018-08-17T01:51:37.216Z,0.00
2018-08-17T01:52:37.409Z,0.00
2018-08-17T01:53:37.573Z,0.00
2018-08-17T01:54:37.762Z,0.00
2018-08-17T01:55:37.944Z,0.00
2018-08-17T01:56:38.096Z,0.00
2018-08-17T01:57:38.279Z,0.00
2018-08-17T01:58:38.471Z,0.00
2018-08-17T01:59:38.648Z,0.00
2018-08-17T02:00:38.812Z,0.00
2018-08-17T02:01:39.015Z,0.00
2018-08-17T02:02:39.186Z,0.00
2018-08-17T02:03:39.381Z,0.00
2018-08-17T02:04:39.550Z,0.00
2018-08-17T02:05:39.725Z,0.00
2018-08-17T02:06:39.894Z,0.00
2018-08-17T02:07:40.071Z,0.00
2018-08-17T02:08:40.249Z,0.00
2018-08-17T02:10:40.598Z,0.00
2018-08-17T02:11:40.779Z,0.00
2018-08-17T02:12:40.960Z,0.00
2018-08-17T02:13:41.137Z,0.00
2018-08-17T02:14:41.382Z,0.00
2018-08-17T02:15:41.473Z,0.00
2018-08-17T02:16:41.657Z,0.00
2018-08-17T02:17:41.829Z,0.00
2018-08-17T02:18:42.014Z,0.00
2018-08-17T02:19:42.194Z,0.00
2018-08-17T02:20:42.383Z,0.00
2018-08-17T02:21:42.553Z,0.00
2018-08-17T02:22:42.743Z,0.00
2018-08-17T02:23:42.912Z,0.00
2018-08-17T02:24:43.091Z,0.00
2018-08-17T02:25:43.259Z,0.00
2018-08-17T02:26:43.468Z,0.00
2018-08-17T02:27:43.619Z,0.00
2018-08-17T02:28:43.813Z,0.00
2018-08-17T02:29:44.024Z,0.00
2018-08-17T02:30:44.156Z,0.00
2018-08-17T02:31:44.351Z,0.00
2018-08-17T02:32:44.530Z,0.00
2018-08-17T02:33:44.691Z,0.00
2018-08-17T02:34:44.881Z,0.00
2018-08-17T02:35:45.052Z,0.00
2018-08-17T02:36:45.494Z,0.00
2018-08-17T02:37:45.418Z,0.00
2018-08-17T02:38:45.592Z,0.00
2018-08-17T02:39:45.783Z,0.00
2018-08-17T02:40:45.952Z,0.00
2018-08-17T02:41:46.157Z,0.00
2018-08-17T02:42:46.310Z,0.00
2018-08-17T02:43:46.484Z,0.00
2018-08-17T02:44:46.656Z,0.00
2018-08-17T02:45:46.838Z,0.00
2018-08-17T02:46:47.032Z,0.00
2018-08-17T02:47:47.181Z,0.00
2018-08-17T02:48:47.364Z,0.00
2018-08-17T02:49:47.543Z,0.00
2018-08-17T02:50:47.721Z,0.00
2018-08-17T02:51:47.893Z,0.00
2018-08-17T02:52:48.090Z,0.00
2018-08-17T02:53:48.270Z,0.00
2018-08-17T02:54:48.443Z,0.00
2018-08-17T02:55:48.615Z,0.00
2018-08-17T02:56:48.801Z,0.00
2018-08-17T02:57:48.992Z,0.00
2018-08-17T02:58:49.179Z,0.00
2018-08-17T02:59:49.363Z,0.00
2018-08-17T03:00:49.537Z,0.00
2018-08-17T03:01:49.716Z,0.00
2018-08-17T03:02:49.900Z,0.00
2018-08-17T03:03:50.083Z,0.00
2018-08-17T03:04:50.257Z,0.00
2018-08-17T03:05:50.443Z,0.00
2018-08-17T03:06:50.630Z,0.00
2018-08-17T03:07:50.808Z,0.00
2018-08-17T03:08:50.972Z,0.00
2018-08-17T03:09:51.166Z,0.00
2018-08-17T03:10:51.345Z,0.00
2018-08-17T03:11:51.518Z,0.00
2018-08-17T03:12:51.686Z,0.00
2018-08-17T03:13:51.856Z,0.00
2018-08-17T03:14:52.042Z,0.00
2018-08-17T03:15:52.242Z,0.00
2018-08-17T03:16:52.415Z,0.00
2018-08-17T03:17:52.597Z,0.00
2018-08-17T03:18:52.779Z,0.00
2018-08-17T03:19:52.965Z,0.00
2018-08-17T03:20:53.158Z,0.00
2018-08-17T03:21:53.326Z,0.00
2018-08-17T03:22:53.499Z,0.00
2018-08-17T03:23:53.667Z,0.00
2018-08-17T03:24:53.842Z,0.00
2018-08-17T03:25:54.029Z,0.00
2018-08-17T03:26:54.210Z,0.00
2018-08-17T03:27:54.395Z,0.00
2018-08-17T03:28:54.567Z,0.00
2018-08-17T03:29:54.744Z,0.00
2018-08-17T03:30:54.923Z,0.00
2018-08-17T03:31:55.109Z,0.00
2018-08-17T03:32:55.287Z,0.00
2018-08-17T03:33:55.462Z,0.00
2018-08-17T03:34:55.632Z,4.00
2018-08-17T03:35:55.806Z,4.00
2018-08-17T03:36:55.990Z,4.00
2018-08-17T03:37:56.198Z,0.00
2018-08-17T03:38:56.347Z,4.00
2018-08-17T03:39:56.540Z,4.00
2018-08-17T03:40:56.701Z,4.00
2018-08-17T03:41:56.887Z,4.00
2018-08-17T03:42:57.063Z,4.00
2018-08-17T03:43:57.228Z,8.00
2018-08-17T03:44:57.417Z,8.00
2018-08-17T03:45:57.602Z,12.00
2018-08-17T03:46:57.768Z,8.00
2018-08-17T03:47:58.189Z,12.00
2018-08-17T03:48:58.111Z,16.00
2018-08-17T03:49:58.295Z,20.00
2018-08-17T03:50:58.724Z,20.00
2018-08-17T03:51:58.677Z,24.00
2018-08-17T03:52:58.847Z,28.00
2018-08-17T03:53:59.037Z,28.00
2018-08-17T03:54:59.222Z,36.00
2018-08-17T03:55:59.405Z,40.00
2018-08-17T03:56:59.577Z,44.00
2018-08-17T03:57:59.756Z,48.00
2018-08-17T03:58:59.942Z,56.00
2018-08-17T04:00:00.131Z,68.00
2018-08-17T04:01:00.308Z,80.00
2018-08-17T04:02:00.482Z,92.00
2018-08-17T04:03:00.666Z,108.00
2018-08-17T04:04:00.848Z,128.00
2018-08-17T04:05:01.036Z,144.00
2018-08-17T04:06:01.224Z,164.00
2018-08-17T04:07:01.404Z,184.00
2018-08-17T04:08:01.583Z,200.00
2018-08-17T04:09:01.763Z,212.00
2018-08-17T04:10:01.951Z,224.00
2018-08-17T04:11:02.135Z,240.00
2018-08-17T04:12:02.307Z,260.00
2018-08-17T04:13:02.484Z,288.00
2018-08-17T04:14:02.659Z,320.00
2018-08-17T04:15:02.834Z,352.00
2018-08-17T04:16:03.039Z,384.00
2018-08-17T04:17:03.205Z,424.00
2018-08-17T04:18:03.388Z,456.00
2018-08-17T04:19:03.568Z,496.00
2018-08-17T04:20:03.742Z,532.00
2018-08-17T04:21:04.069Z,568.00
2018-08-17T04:22:04.219Z,608.00
2018-08-17T04:23:04.364Z,660.00
2018-08-17T04:24:04.578Z,720.00
2018-08-17T04:25:04.741Z,768.00
2018-08-17T04:26:04.930Z,800.00
2018-08-17T04:27:05.093Z,836.00
2018-08-17T04:28:05.278Z,888.00
2018-08-17T04:29:05.717Z,976.00
2018-08-17T04:30:05.641Z,1088.00
2018-08-17T04:31:05.811Z,1184.00
2018-08-17T04:32:05.988Z,1232.00
2018-08-17T04:33:06.174Z,1304.00
2018-08-17T04:34:06.353Z,1408.00
2018-08-17T04:35:06.543Z,1544.00
2018-08-17T04:36:06.706Z,1756.00
2018-08-17T04:37:06.882Z,2040.00
2018-08-17T04:38:07.065Z,2420.00
2018-08-17T04:39:07.237Z,3324.00
2018-08-17T04:40:07.426Z,4008.00
2018-08-17T04:41:07.601Z,3776.00
2018-08-17T04:42:07.789Z,3208.00
2018-08-17T04:43:07.982Z,3548.00
2018-08-17T04:44:08.158Z,4432.00
2018-08-17T04:45:08.347Z,4748.00
2018-08-17T04:46:08.527Z,3920.00
2018-08-17T04:47:08.694Z,3184.00
2018-08-17T04:48:08.893Z,3064.00
2018-08-17T04:49:09.132Z,4060.00
2018-08-17T04:50:09.265Z,5908.00
2018-08-17T04:51:09.437Z,6604.00
2018-08-17T04:52:09.603Z,6588.00
2018-08-17T04:53:09.779Z,5764.00
2018-08-17T04:54:09.952Z,6732.00
2018-08-17T04:55:10.131Z,7832.00
2018-08-17T04:56:10.300Z,9728.00
2018-08-17T04:57:10.485Z,10304.00
2018-08-17T04:58:10.642Z,11136.00
2018-08-17T04:59:10.826Z,12320.00
2018-08-17T05:00:10.980Z,13280.00
2018-08-17T05:01:11.169Z,14080.00
2018-08-17T05:04:43.651Z,14624.00
2018-08-17T05:05:43.837Z,14720.00
2018-08-17T05:06:44.604Z,13760.00
2018-08-17T05:07:44.202Z,10976.00
2018-08-17T05:08:44.359Z,12512.00
2018-08-17T05:09:44.553Z,11872.00
2018-08-17T05:10:44.742Z,10060.00
2018-08-17T05:11:44.933Z,9632.00
2018-08-17T05:12:45.109Z,7192.00
2018-08-17T05:13:45.299Z,4048.00
2018-08-17T05:14:45.479Z,3540.00
2018-08-17T05:15:45.647Z,3568.00
2018-08-17T05:16:45.841Z,3000.00
2018-08-17T05:17:46.040Z,2916.00
2018-08-17T05:18:46.215Z,3592.00
2018-08-17T05:19:46.405Z,4328.00
2018-08-17T05:20:46.572Z,4328.00
2018-08-17T05:21:46.764Z,3232.00
2018-08-17T05:22:46.948Z,3176.00
2018-08-17T05:23:47.116Z,3156.00
2018-08-17T05:24:47.287Z,3116.00
2018-08-17T05:25:47.472Z,3068.00
2018-08-17T05:26:47.655Z,3012.00
2018-08-17T05:27:47.839Z,2944.00
2018-08-17T05:28:48.015Z,2848.00
2018-08-17T05:29:48.196Z,2756.00
2018-08-17T05:30:48.384Z,2700.00
2018-08-17T05:31:48.559Z,2688.00
2018-08-17T05:32:48.739Z,2700.00
2018-08-17T05:33:48.921Z,2712.00
2018-08-17T05:34:49.096Z,2724.00
2018-08-17T05:35:49.300Z,2812.00
2018-08-17T05:36:49.700Z,2912.00
2018-08-17T05:37:49.647Z,3040.00
2018-08-17T05:38:49.824Z,3216.00
2018-08-17T05:39:50.003Z,3356.00
2018-08-17T05:40:50.183Z,3760.00
2018-08-17T05:41:50.362Z,3548.00
2018-08-17T05:42:50.551Z,3944.00
2018-08-17T05:43:50.727Z,4304.00
2018-08-17T05:44:50.917Z,5888.00
2018-08-17T05:45:51.093Z,6160.00
2018-08-17T05:46:51.287Z,5232.00
2018-08-17T05:47:51.455Z,5284.00
2018-08-17T05:48:51.637Z,5932.00
2018-08-17T05:49:51.815Z,6920.00
2018-08-17T05:50:51.994Z,19712.00
2018-08-17T05:51:52.182Z,30112.00
2018-08-17T05:52:52.410Z,28576.00
2018-08-17T05:53:52.591Z,29696.00
2018-08-17T05:54:52.777Z,29504.00
2018-08-17T05:55:52.936Z,8356.00
2018-08-17T05:56:53.125Z,7908.00
2018-08-17T05:57:53.344Z,23232.00
2018-08-17T05:58:53.545Z,21472.00
2018-08-17T05:59:53.682Z,27232.00
2018-08-17T06:00:53.860Z,30240.00
2018-08-17T06:01:54.069Z,31168.00
2018-08-17T06:02:54.388Z,26592.00
2018-08-17T06:03:54.440Z,26688.00
2018-08-17T06:04:54.599Z,18496.00
2018-08-17T06:05:54.819Z,21856.00
2018-08-17T06:06:54.992Z,10192.00
2018-08-17T06:07:55.216Z,12448.00
2018-08-17T06:08:55.394Z,9660.00
2018-08-17T06:09:55.661Z,8252.00
2018-08-17T06:10:55.862Z,13812.00
2018-08-17T06:11:55.948Z,9128.00
2018-08-17T06:12:56.102Z,32736.00
2018-08-17T06:13:56.285Z,35936.00
2018-08-17T06:14:56.487Z,36864.00
2018-08-17T06:15:56.679Z,31616.00
2018-08-17T06:16:56.859Z,23392.00
2018-08-17T06:17:57.058Z,36832.00
2018-08-17T06:18:57.295Z,35488.00
2018-08-17T06:19:57.424Z,30336.00
2018-08-17T06:20:57.629Z,23168.00
2018-08-17T06:21:57.796Z,12164.00
2018-08-17T06:22:57.969Z,11940.00
2018-08-17T06:23:58.129Z,40160.00
2018-08-17T06:24:58.337Z,40064.00
2018-08-17T06:25:58.488Z,39680.00
2018-08-17T06:26:58.714Z,37504.00
2018-08-17T06:27:58.844Z,35840.00
2018-08-17T06:28:59.028Z,35712.00
2018-08-17T06:29:59.180Z,37472.00
2018-08-17T06:30:59.369Z,34976.00
2018-08-17T06:31:59.537Z,32576.00
2018-08-17T06:32:59.676Z,31776.00
2018-08-17T06:33:59.914Z,21696.00
2018-08-17T06:35:00.299Z,31520.00
2018-08-17T06:36:00.799Z,33728.00
2018-08-17T06:37:00.431Z,20736.00
2018-08-17T06:38:00.567Z,38944.00
2018-08-17T06:39:02.362Z,38112.00
2018-08-17T06:40:01.025Z,36864.00
2018-08-17T06:41:01.146Z,36960.00
2018-08-17T06:42:01.393Z,39456.00
2018-08-17T06:43:01.554Z,40992.00
2018-08-17T06:44:01.802Z,39040.00
2018-08-17T06:45:01.939Z,35392.00
2018-08-17T06:46:02.135Z,36384.00
2018-08-17T06:47:02.289Z,35008.00
2018-08-17T06:48:02.545Z,34624.00
2018-08-17T06:49:02.657Z,34752.00
2018-08-17T06:50:02.836Z,37088.00
2018-08-17T06:51:03.064Z,35872.00
2018-08-17T06:52:03.306Z,34784.00
2018-08-17T06:53:03.429Z,38816.00
2018-08-17T06:54:03.572Z,38560.00
2018-08-17T06:55:03.766Z,37760.00
2018-08-17T06:56:03.945Z,37088.00
2018-08-17T06:57:04.187Z,35264.00
2018-08-17T06:58:04.314Z,39200.00
2018-08-17T06:59:04.492Z,38720.00
2018-08-17T07:00:04.667Z,37088.00
2018-08-17T07:01:04.859Z,31552.00
2018-08-17T07:02:05.049Z,11600.00
2018-08-17T07:03:05.218Z,32736.00
2018-08-17T07:04:05.417Z,35552.00
2018-08-17T07:05:05.625Z,34752.00
2018-08-17T07:06:05.856Z,31104.00
2018-08-17T07:07:06.058Z,35552.00
2018-08-17T07:08:06.224Z,23904.00
2018-08-17T07:09:06.501Z,15900.00
2018-08-17T07:10:06.574Z,33792.00
2018-08-17T07:11:06.711Z,30464.00
2018-08-17T07:12:06.891Z,31040.00
2018-08-17T07:13:07.102Z,34688.00
2018-08-17T07:14:07.279Z,33856.00
2018-08-17T07:15:07.488Z,33536.00
2018-08-17T07:16:07.674Z,34240.00
2018-08-17T07:17:07.853Z,16320.00
2018-08-17T07:18:07.985Z,17888.00
2018-08-17T07:19:08.193Z,25472.00
2018-08-17T07:20:08.400Z,12380.00
2018-08-17T07:21:08.557Z,15244.00
2018-08-17T07:22:08.753Z,12412.00
2018-08-17T07:23:08.946Z,13696.00
2018-08-17T07:24:09.125Z,29600.00
2018-08-17T07:25:09.310Z,30560.00
2018-08-17T07:26:09.497Z,14948.00
2018-08-17T07:27:09.686Z,19904.00
2018-08-17T07:28:09.885Z,25408.00
2018-08-17T07:29:10.048Z,19552.00
2018-08-17T07:30:10.242Z,11964.00
2018-08-17T07:31:10.427Z,11276.00
2018-08-17T07:32:10.617Z,13340.00
2018-08-17T07:33:10.803Z,14760.00
2018-08-17T07:34:10.965Z,18464.00
2018-08-17T07:35:11.154Z,23264.00
2018-08-17T07:36:11.353Z,12680.00
2018-08-17T07:37:11.779Z,10448.00
2018-08-17T07:38:11.728Z,8996.00
2018-08-17T07:39:11.906Z,8604.00
2018-08-17T07:40:12.792Z,8560.00
2018-08-17T07:41:12.315Z,18048.00
2018-08-17T07:42:12.525Z,11760.00
2018-08-17T07:43:12.716Z,8096.00
2018-08-17T07:44:12.886Z,7896.00
2018-08-17T07:45:13.075Z,8560.00
2018-08-17T07:46:13.276Z,8684.00
2018-08-17T07:47:13.456Z,8552.00
2018-08-17T07:48:13.802Z,8536.00
2018-08-17T07:49:13.827Z,9000.00
2018-08-17T07:50:14.015Z,10908.00
2018-08-17T07:51:14.197Z,20192.00
2018-08-17T07:52:14.397Z,21632.00
2018-08-17T07:53:14.591Z,21952.00
2018-08-17T07:54:14.778Z,21120.00
2018-08-17T07:55:14.968Z,19008.00
2018-08-17T07:56:15.202Z,20288.00
2018-08-17T07:57:15.330Z,19744.00
2018-08-17T07:58:15.751Z,20960.00
2018-08-17T07:59:15.686Z,20960.00
2018-08-17T08:00:15.878Z,12100.00
2018-08-17T08:01:16.068Z,12620.00
2018-08-17T08:02:16.265Z,10552.00
2018-08-17T08:03:16.440Z,9560.00
2018-08-17T08:04:16.644Z,9032.00
2018-08-17T08:05:16.803Z,9264.00
2018-08-17T08:06:16.972Z,8516.00
2018-08-17T08:07:17.168Z,8688.00
2018-08-17T08:08:17.352Z,10280.00
2018-08-17T08:09:17.545Z,12688.00
2018-08-17T08:10:17.731Z,10152.00
2018-08-17T08:11:17.921Z,11360.00
2018-08-17T08:12:18.111Z,15332.00
2018-08-17T08:13:18.284Z,15968.00
2018-08-17T08:14:18.470Z,11924.00
2018-08-17T08:15:18.639Z,9880.00
2018-08-17T08:16:18.805Z,9876.00
2018-08-17T08:17:18.979Z,10012.00
2018-08-17T08:18:19.188Z,13640.00
2018-08-17T08:19:19.324Z,9764.00
2018-08-17T08:20:19.555Z,9864.00
2018-08-17T08:21:19.678Z,9708.00
2018-08-17T08:22:19.865Z,8952.00
2018-08-17T08:23:20.047Z,11728.00
2018-08-17T08:24:20.238Z,12396.00
2018-08-17T08:25:20.425Z,9656.00
2018-08-17T08:26:20.625Z,9760.00
2018-08-17T08:27:20.772Z,9716.00
2018-08-17T08:28:21.145Z,9556.00
2018-08-17T08:29:21.116Z,9620.00
2018-08-17T08:30:21.310Z,11024.00
2018-08-17T08:31:21.469Z,12724.00
2018-08-17T08:32:21.641Z,10960.00
2018-08-17T08:33:21.799Z,16704.00
2018-08-17T08:34:21.999Z,12204.00
2018-08-17T08:35:22.166Z,10540.00
2018-08-17T08:36:22.876Z,10216.00
2018-08-17T08:37:22.556Z,10404.00
2018-08-17T08:38:22.759Z,11124.00
2018-08-17T08:39:22.959Z,12372.00
2018-08-17T08:40:23.157Z,10068.00
2018-08-17T08:41:23.370Z,8884.00
2018-08-17T08:42:23.541Z,8760.00
2018-08-17T08:43:23.706Z,9088.00
2018-08-17T08:44:23.916Z,12500.00
2018-08-17T08:45:24.118Z,15936.00
2018-08-17T08:46:24.286Z,12236.00
2018-08-17T08:47:24.462Z,16896.00
2018-08-17T08:48:24.642Z,17152.00
2018-08-17T08:49:24.829Z,15072.00
2018-08-17T08:50:25.040Z,15664.00
2018-08-17T08:51:25.245Z,12000.00
2018-08-17T08:52:25.483Z,14252.00
2018-08-17T08:53:25.577Z,14980.00
2018-08-17T08:54:25.765Z,11720.00
2018-08-17T08:55:25.941Z,10772.00
2018-08-17T08:56:26.132Z,12004.00
2018-08-17T08:57:26.311Z,11612.00
2018-08-17T08:58:26.505Z,10884.00
2018-08-17T08:59:26.672Z,10828.00
2018-08-17T09:00:26.854Z,10068.00
2018-08-17T09:01:27.096Z,11504.00
2018-08-17T09:02:27.272Z,14176.00
2018-08-17T09:03:27.520Z,13752.00
2018-08-17T09:04:27.633Z,13372.00
2018-08-17T09:05:27.829Z,12960.00
2018-08-17T09:06:27.991Z,10676.00
2018-08-17T09:07:28.294Z,10668.00
2018-08-17T09:08:28.449Z,10676.00
2018-08-17T09:09:28.610Z,10408.00
2018-08-17T09:10:28.822Z,9420.00
2018-08-17T09:11:29.051Z,9440.00
2018-08-17T09:12:29.217Z,10220.00
2018-08-17T09:13:29.401Z,9096.00
2018-08-17T09:14:29.570Z,9404.00
2018-08-17T09:15:29.788Z,9288.00
2018-08-17T09:16:29.934Z,8956.00
2018-08-17T09:17:30.136Z,12264.00
2018-08-17T09:18:30.285Z,12312.00
2018-08-17T09:19:30.455Z,12404.00
2018-08-17T09:20:30.695Z,11320.00
2018-08-17T09:21:30.870Z,9588.00
2018-08-17T09:22:31.069Z,9372.00
2018-08-17T09:23:31.256Z,8308.00
2018-08-17T09:24:31.476Z,10256.00
2018-08-17T09:25:31.678Z,9612.00
2018-08-17T09:26:31.874Z,10964.00
2018-08-17T09:27:32.066Z,12444.00
2018-08-17T09:28:32.292Z,12192.00
2018-08-17T09:29:32.479Z,11308.00
2018-08-17T09:30:32.639Z,12108.00
2018-08-17T09:31:32.826Z,12492.00
2018-08-17T09:32:33.028Z,13168.00
2018-08-17T09:33:33.206Z,12012.00
2018-08-17T09:34:33.395Z,8964.00
2018-08-17T09:35:33.759Z,12448.00
2018-08-17T09:36:34.406Z,11272.00
2018-08-17T09:37:33.964Z,12060.00
2018-08-17T09:38:34.197Z,11376.00
2018-08-17T09:39:34.346Z,11188.00
2018-08-17T09:40:34.544Z,11736.00
2018-08-17T09:41:34.761Z,11628.00
2018-08-17T09:42:34.859Z,12208.00
2018-08-17T09:43:35.083Z,12392.00
2018-08-17T09:44:35.284Z,12084.00
2018-08-17T09:46:35.636Z,12588.00
2018-08-17T09:47:35.810Z,13336.00
2018-08-17T09:48:35.995Z,14124.00
2018-08-17T09:49:36.177Z,14064.00
2018-08-17T09:50:36.360Z,13684.00
2018-08-17T09:51:36.546Z,13092.00
2018-08-17T09:52:36.715Z,12588.00
2018-08-17T09:53:36.887Z,10656.00
2018-08-17T09:54:37.066Z,13136.00
2018-08-17T09:55:37.246Z,13756.00
2018-08-17T09:56:37.413Z,13716.00
2018-08-17T09:57:37.681Z,8552.00
2018-08-17T09:58:37.778Z,7928.00
2018-08-17T09:59:37.967Z,13132.00
2018-08-17T10:00:38.160Z,13288.00
2018-08-17T10:01:38.357Z,13236.00
2018-08-17T10:02:38.556Z,13428.00
2018-08-17T10:03:38.793Z,13112.00
2018-08-17T10:04:38.961Z,13164.00
2018-08-17T10:05:39.933Z,12180.00
2018-08-17T10:06:39.373Z,12272.00
2018-08-17T10:07:39.522Z,11348.00
2018-08-17T10:08:39.724Z,8952.00
2018-08-17T10:09:39.896Z,12084.00
2018-08-17T10:10:40.088Z,9024.00
2018-08-17T10:11:40.274Z,10884.00
2018-08-17T10:12:40.438Z,11864.00
2018-08-17T10:13:40.624Z,11432.00
2018-08-17T10:14:40.810Z,12372.00
2018-08-17T10:15:40.991Z,12932.00
2018-08-17T10:16:41.207Z,8704.00
2018-08-17T10:17:41.346Z,9108.00
2018-08-17T10:18:41.520Z,8736.00
2018-08-17T10:19:41.691Z,10952.00
2018-08-17T10:20:42.199Z,12120.00
2018-08-17T10:21:42.240Z,11680.00
2018-08-17T10:22:42.249Z,10728.00
2018-08-17T10:23:42.465Z,10160.00
2018-08-17T10:24:42.639Z,10632.00
2018-08-17T10:25:42.797Z,10816.00
2018-08-17T10:26:42.989Z,10668.00
2018-08-17T10:27:43.169Z,10056.00
2018-08-17T10:28:43.380Z,10328.00
2018-08-17T10:29:43.525Z,10448.00
2018-08-17T10:30:43.757Z,10500.00
2018-08-17T10:31:43.911Z,10376.00
2018-08-17T10:32:44.091Z,10524.00
2018-08-17T10:33:44.281Z,10656.00
2018-08-17T10:34:44.463Z,10324.00
2018-08-17T10:35:44.635Z,9884.00
2018-08-17T10:36:44.834Z,9400.00
2018-08-17T10:37:45.007Z,9372.00
2018-08-17T10:38:45.212Z,9336.00
2018-08-17T10:39:45.393Z,9732.00
2018-08-17T10:40:45.658Z,9236.00
2018-08-17T10:41:45.831Z,7692.00
2018-08-17T10:42:45.977Z,7036.00
2018-08-17T10:43:46.171Z,6792.00
2018-08-17T10:44:46.335Z,6696.00
2018-08-17T10:45:46.518Z,6840.00
2018-08-17T10:46:46.703Z,7404.00
2018-08-17T10:47:46.893Z,8768.00
2018-08-17T10:49:47.260Z,9476.00
2018-08-17T10:50:47.471Z,9648.00
2018-08-17T10:51:47.684Z,9080.00
2018-08-17T10:52:47.906Z,8956.00
2018-08-17T10:53:48.095Z,9292.00
2018-08-17T10:54:48.275Z,9504.00
2018-08-17T10:55:48.481Z,9440.00
2018-08-17T10:56:48.661Z,9248.00
2018-08-17T10:57:48.839Z,9384.00
2018-08-17T10:58:49.023Z,9584.00
2018-08-17T10:59:49.206Z,9932.00
2018-08-17T11:00:49.417Z,9768.00
2018-08-17T11:01:49.597Z,9568.00
2018-08-17T11:02:49.796Z,9512.00
2018-08-17T11:03:49.922Z,9324.00
2018-08-17T11:04:50.116Z,9220.00
2018-08-17T11:05:50.297Z,9032.00
2018-08-17T11:06:50.479Z,8756.00
2018-08-17T11:07:50.661Z,8584.00
2018-08-17T11:11:23.203Z,8140.00
2018-08-17T11:12:23.405Z,8092.00
2018-08-17T11:13:23.580Z,8020.00
2018-08-17T11:14:23.765Z,7944.00
2018-08-17T11:15:23.949Z,7912.00
2018-08-17T11:16:24.138Z,7780.00
2018-08-17T11:17:24.320Z,7672.00
2018-08-17T11:18:24.509Z,7580.00
2018-08-17T11:19:24.697Z,7444.00
2018-08-17T11:20:24.876Z,7312.00
2018-08-17T11:21:25.072Z,7200.00
2018-08-17T11:22:25.271Z,7108.00
2018-08-17T11:23:25.456Z,7024.00
2018-08-17T11:24:25.679Z,6916.00
2018-08-17T11:25:25.860Z,6856.00
2018-08-17T11:26:26.051Z,6716.00
2018-08-17T11:27:26.237Z,6640.00
2018-08-17T11:28:26.423Z,6632.00
2018-08-17T11:29:26.617Z,6864.00
2018-08-17T11:30:26.802Z,6492.00
2018-08-17T11:31:26.965Z,6444.00
2018-08-17T11:32:27.171Z,6416.00
2018-08-17T11:33:27.637Z,6400.00
2018-08-17T11:34:27.548Z,6356.00
2018-08-17T11:35:27.710Z,6348.00
2018-08-17T11:37:28.089Z,6296.00
2018-08-17T11:38:28.281Z,6236.00
2018-08-17T11:39:28.456Z,6204.00
2018-08-17T11:40:28.640Z,5968.00
2018-08-17T11:41:28.986Z,5956.00
2018-08-17T11:42:29.020Z,5900.00
2018-08-17T11:43:29.192Z,5932.00
2018-08-17T11:44:29.377Z,5840.00
2018-08-17T11:45:29.584Z,5816.00
2018-08-17T11:46:29.822Z,5784.00
2018-08-17T11:47:29.948Z,5768.00
2018-08-17T11:48:30.214Z,5756.00
2018-08-17T11:49:30.417Z,5736.00
2018-08-17T11:50:30.582Z,5688.00
2018-08-17T11:51:30.791Z,5652.00
2018-08-17T11:52:30.977Z,5604.00
2018-08-17T11:53:31.179Z,5580.00
2018-08-17T11:54:31.379Z,5592.00
2018-08-17T11:55:31.574Z,5592.00
2018-08-17T11:56:31.766Z,5560.00
2018-08-17T11:57:31.960Z,5556.00
2018-08-17T11:58:32.130Z,5560.00
2018-08-17T11:59:32.310Z,5564.00
2018-08-17T12:00:32.491Z,5544.00
2018-08-17T12:01:32.668Z,5516.00
2018-08-17T12:02:32.858Z,5488.00
2018-08-17T12:03:33.055Z,5464.00
2018-08-17T12:04:33.226Z,5432.00
2018-08-17T12:05:33.402Z,5460.00
2018-08-17T12:06:33.601Z,5440.00
2018-08-17T12:07:33.796Z,5452.00
2018-08-17T12:08:34.073Z,5452.00
2018-08-17T12:09:34.177Z,5444.00
2018-08-17T12:10:34.366Z,5404.00
2018-08-17T12:11:34.555Z,5424.00
2018-08-17T12:12:34.764Z,5380.00
2018-08-17T12:13:34.942Z,5356.00
2018-08-17T12:14:35.133Z,5328.00
2018-08-17T12:15:35.310Z,5312.00
2018-08-17T12:16:35.553Z,5288.00
2018-08-17T12:17:35.679Z,5272.00
2018-08-17T12:18:35.911Z,5264.00
2018-08-17T12:19:36.066Z,5256.00
2018-08-17T12:20:36.250Z,5248.00
2018-08-17T12:21:36.446Z,5224.00
2018-08-17T12:22:36.643Z,5248.00
2018-08-17T12:23:36.836Z,5240.00
2018-08-17T12:24:37.045Z,5232.00
2018-08-17T12:25:37.207Z,5240.00
2018-08-17T12:26:37.380Z,5236.00
2018-08-17T12:27:37.576Z,5236.00
2018-08-17T12:28:37.750Z,5228.00
2018-08-17T12:29:37.964Z,5196.00
2018-08-17T12:30:38.163Z,5136.00
2018-08-17T12:31:38.365Z,5132.00
2018-08-17T12:32:38.577Z,5116.00